Carnelian Bay, California
Current Conditions -  °F | °C
As of 10:15 PM on Thursday 18 Dec 2014 (Local Time) from KTRK Reporting Station
Broken Clouds Broken Clouds  
Wind Chill: 24°   Ceiling: 6000
Heat Index: 32°   Visibility: 10mi
Dew Point: 28°   Wind: 9mph
Humidity: 87%   Direction: 100°E
Pressure: 30.16"   Gusts: NA
Location:  39.23°N, 120.08°W
Report Text: KTRK 190615Z AUTO 10008KT 10SM BKN060 BKN070 00/M02 A3016 RMK AO2
Loading
Personal Weather Stations






























Interactive Weather Map New forecast layout! Learn more

10-Day Weather Forecast

Advertisements
Track Severe Weather on mobile